Aérodrome :
LOGIN :

S'inscrire | Disclaimer

   EN    FR    IT 

 










Légende :    VFR   VFR Marginal   IFR   IFR Intensif   IFR Très Intensif
Visi : 
Plafond : 
>= 8 km
>= 3000ft
5 à 8 km
1000 à 3000 ft
1500m à 5 km
500 à 1000 ft
800 à 1500m
200 à 500 ft
< 800m
< 200 ft
Symboles :   Orages  Brouillard  Fortes neiges  Fortes précipitations  Vent > 20 kt
SIGMETs :   Divers  Orages  Givrage  Turbulence  Onde Orograph.  Cendres Volcan.






- Altitude de l'aérodrome : 28 ft
- Code IATA : SOZ


LFKS - Solenzara

DERNIER METAR :
  • 141100Z AUTO 14010KT 9999 FEW021 BKN044 BKN050 23/16 Q1019

METARs EXPIRÉS :
  • 141030Z AUTO 15011KT 120V180 9999 FEW021 BKN043 OVC050 23/16 Q1019
  • 141000Z AUTO 14011KT 9999 FEW023 BKN045 24/15 Q1019
  • 140930Z AUTO 13012KT 9999 FEW022 SCT046 24/16 Q1019
  • 140900Z AUTO 14012KT 9999 FEW022 23/15 Q1019
  • 140830Z AUTO 14011KT 110V170 9999 FEW022 23/16 Q1019
  • 140800Z AUTO 14010KT 110V170 9999 FEW021 23/16 Q1019
  • 140730Z AUTO 13008KT 110V170 CAVOK 23/16 Q1019
  • 140700Z AUTO 14007KT 100V180 CAVOK 22/15 Q1019
  • 140630Z AUTO 16006KT 100V220 CAVOK 22/15 Q1018
  • 140600Z AUTO VRB03KT 9999 FEW024 21/15 Q1018

TAF TAF LFKS
Valide du 14 à 09h jusqu'au 15 à 09h UTC


140800Z 1409/1509 14009KT 9999 FEW020



MET'MAP, la Météo Aéronautique d'un coup d'oeil ! - Copyright ORBIFLY Décembre 2007 - Disclaimer

ORBIFLY MET'MAP TEAM :

Programmation & Développement : Alexandra Zaïnal
Sur une idée originale de : Baudouin d'Aumeries
Soutien technique & logistique : Manuel Goepfert
Assistance : Marc-Olivier Méhu




SOURCES & CREDITS :

   NOAA